ストックホルム/アーランダ の空港の天気 - METARとTAF

ストックホルム・アーランダ空港 ( ESSA / ARN ) - スウェーデン ストックホルム
飛行場実況気象(Metar)
観測時間04/21 16:50 CEST (04/21 14:50 UTC)
風向・風速南南東 8m/s
視程10km以上
天気現象
なし
気温14℃
湿度47%
気圧1022hPa
METARESSA 211450Z 16015KT CAVOK 14/03 Q1022 NOSIG
過去の天気等 Google飛行場航空写真 Wunderground天気予報

過去48時間のMETAR

飛行場予報(TAF)
発表時間: 4/21 13:30 CEST (4/21 11:30 UTC)
予報対象時間: 21日14時 CEST ~ 22日14時 CEST
風向・風速南南東 7m/s
視程10km以上
なし
21日23時 CEST ~ 22日1時 CEST に徐々に
風向・風速南 1m/s
22日10時 CEST ~ 22日12時 CEST に徐々に
風向・風速南西 6m/s
TAF ESSA 211130Z 2112/2212 16013KT CAVOK
BECMG 2121/2123 19002KT
BECMG 2208/2210 22012KT